createdAt,value
2019-03-19T00:00:27.305Z,0
2019-03-19T00:01:27.530Z,0
2019-03-19T00:02:27.763Z,0
2019-03-19T00:03:27.773Z,0
2019-03-19T00:04:27.515Z,0
2019-03-19T00:05:27.523Z,0
2019-03-19T00:06:27.732Z,0
2019-03-19T00:07:27.470Z,0
2019-03-19T00:08:27.702Z,0
2019-03-19T00:09:27.204Z,0
2019-03-19T00:10:27.440Z,0
2019-03-19T00:11:27.446Z,0
2019-03-19T00:12:27.698Z,0
2019-03-19T00:13:27.408Z,0
2019-03-19T00:14:27.662Z,0
2019-03-19T00:15:27.640Z,0
2019-03-19T00:16:27.611Z,0
2019-03-19T00:17:27.610Z,0
2019-03-19T00:18:27.603Z,0
2019-03-19T00:19:29.732Z,0
2019-03-19T00:20:27.597Z,0
2019-03-19T00:21:27.345Z,0
2019-03-19T00:22:28.293Z,0
2019-03-19T00:23:27.577Z,0
2019-03-19T00:24:27.289Z,0
2019-03-19T00:25:36.183Z,0
2019-03-19T00:26:27.265Z,0
2019-03-19T00:27:27.512Z,0
2019-03-19T00:28:27.239Z,0
2019-03-19T00:29:27.225Z,0
2019-03-19T00:30:26.977Z,0
2019-03-19T00:31:27.453Z,0
2019-03-19T00:32:27.440Z,0
2019-03-19T00:33:27.429Z,0
2019-03-19T00:34:27.411Z,0
2019-03-19T00:35:27.428Z,0
2019-03-19T00:36:26.918Z,0
2019-03-19T00:37:27.392Z,0
2019-03-19T00:38:27.376Z,0
2019-03-19T00:39:27.365Z,0
2019-03-19T00:40:27.351Z,0
2019-03-19T00:41:27.097Z,0
2019-03-19T00:42:27.336Z,0
2019-03-19T00:43:27.322Z,0
2019-03-19T00:44:27.314Z,0
2019-03-19T00:45:27.314Z,0
2019-03-19T00:46:27.314Z,0
2019-03-19T00:47:26.543Z,0
2019-03-19T00:48:28.080Z,0
2019-03-19T00:49:27.266Z,0
2019-03-19T00:50:26.762Z,0
2019-03-19T00:51:26.746Z,0
2019-03-19T00:52:26.987Z,0
2019-03-19T00:53:26.977Z,0
2019-03-19T00:54:26.948Z,0
2019-03-19T00:55:27.207Z,0
2019-03-19T00:56:27.189Z,0
2019-03-19T00:57:27.185Z,0
2019-03-19T00:58:27.184Z,0
2019-03-19T00:59:27.155Z,0
2019-03-19T01:00:26.655Z,0
2019-03-19T01:01:27.171Z,0
2019-03-19T01:02:26.900Z,0
2019-03-19T01:03:26.881Z,0
2019-03-19T01:04:27.097Z,0
2019-03-19T01:05:26.866Z,0
2019-03-19T01:06:27.094Z,0
2019-03-19T01:07:26.850Z,0
2019-03-19T01:08:27.089Z,0
2019-03-19T01:09:26.812Z,0
2019-03-19T01:10:27.047Z,0
2019-03-19T01:11:26.789Z,0
2019-03-19T01:12:27.024Z,0
2019-03-19T01:13:27.018Z,0
2019-03-19T01:14:26.753Z,0
2019-03-19T01:15:26.997Z,0
2019-03-19T01:16:26.502Z,0
2019-03-19T01:17:26.987Z,0
2019-03-19T01:18:26.961Z,0
2019-03-19T01:19:26.959Z,0
2019-03-19T01:20:26.709Z,0
2019-03-19T01:21:26.451Z,0
2019-03-19T01:22:26.991Z,0
2019-03-19T01:23:26.662Z,0
2019-03-19T01:24:26.910Z,0
2019-03-19T01:25:27.336Z,0
2019-03-19T01:26:26.897Z,0
2019-03-19T01:27:26.898Z,0
2019-03-19T01:28:26.607Z,0
2019-03-19T01:29:26.616Z,0
2019-03-19T01:30:26.619Z,0
2019-03-19T01:31:26.346Z,0
2019-03-19T01:32:26.320Z,0
2019-03-19T01:33:26.566Z,0
2019-03-19T01:34:26.550Z,0
2019-03-19T01:35:26.780Z,0
2019-03-19T01:36:26.790Z,0
2019-03-19T01:37:26.268Z,0
2019-03-19T01:38:26.511Z,0
2019-03-19T01:39:26.764Z,0
2019-03-19T01:40:26.506Z,0
2019-03-19T01:41:26.487Z,0
2019-03-19T01:42:26.485Z,0
2019-03-19T01:43:26.479Z,0
2019-03-19T01:44:26.477Z,0
2019-03-19T01:45:26.433Z,0
2019-03-19T01:46:26.693Z,0
2019-03-19T01:47:26.673Z,0
2019-03-19T01:48:26.166Z,0
2019-03-19T01:49:31.508Z,0
2019-03-19T01:50:26.381Z,0
2019-03-19T01:51:26.386Z,0
2019-03-19T01:52:26.383Z,0
2019-03-19T01:53:26.124Z,0
2019-03-19T01:54:26.611Z,0
2019-03-19T01:55:27.890Z,0
2019-03-19T01:56:26.106Z,0
2019-03-19T01:57:26.337Z,0
2019-03-19T01:58:26.085Z,0
2019-03-19T01:59:26.051Z,0
2019-03-19T02:00:26.540Z,0
2019-03-19T02:01:26.294Z,0
2019-03-19T02:02:26.280Z,0
2019-03-19T02:03:26.268Z,0
2019-03-19T02:04:26.261Z,0
2019-03-19T02:05:25.764Z,0
2019-03-19T02:06:25.992Z,0
2019-03-19T02:07:26.240Z,0
2019-03-19T02:08:26.272Z,0
2019-03-19T02:09:26.479Z,0
2019-03-19T02:10:26.216Z,0
2019-03-19T02:11:26.441Z,0
2019-03-19T02:12:25.937Z,0
2019-03-19T02:13:25.925Z,0
2019-03-19T02:14:25.935Z,0
2019-03-19T02:15:26.147Z,0
2019-03-19T02:16:26.154Z,0
2019-03-19T02:17:26.141Z,0
2019-03-19T02:18:26.123Z,0
2019-03-19T02:19:26.381Z,0
2019-03-19T02:20:25.858Z,0
2019-03-19T02:21:26.098Z,0
2019-03-19T02:22:26.093Z,0
2019-03-19T02:23:26.326Z,0
2019-03-19T02:24:26.317Z,0
2019-03-19T02:25:26.324Z,0
2019-03-19T02:26:25.811Z,0
2019-03-19T02:27:26.063Z,0
2019-03-19T02:28:25.792Z,0
2019-03-19T02:29:26.293Z,0
2019-03-19T02:30:26.324Z,0
2019-03-19T02:31:26.262Z,0
2019-03-19T02:32:26.249Z,0
2019-03-19T02:33:26.257Z,0
2019-03-19T02:34:25.984Z,0
2019-03-19T02:35:26.009Z,0
2019-03-19T02:36:25.966Z,0
2019-03-19T02:37:25.975Z,0
2019-03-19T02:38:26.222Z,0
2019-03-19T02:39:26.213Z,0
2019-03-19T02:40:26.197Z,0
2019-03-19T02:41:26.166Z,0
2019-03-19T02:42:26.244Z,0
2019-03-19T02:43:29.946Z,0
2019-03-19T02:44:26.174Z,0
2019-03-19T02:45:26.257Z,0
2019-03-19T02:46:25.910Z,0
2019-03-19T02:47:26.118Z,0
2019-03-19T02:48:25.606Z,0
2019-03-19T02:49:25.849Z,0
2019-03-19T02:50:26.242Z,0
2019-03-19T02:51:26.168Z,0
2019-03-19T02:52:26.066Z,0
2019-03-19T02:53:25.808Z,0
2019-03-19T02:54:25.786Z,0
2019-03-19T02:55:25.306Z,0
2019-03-19T02:56:39.630Z,0
2019-03-19T02:57:25.771Z,0
2019-03-19T02:58:26.034Z,0
2019-03-19T02:59:25.741Z,0
2019-03-19T03:00:25.538Z,0
2019-03-19T03:01:25.983Z,0
2019-03-19T03:02:25.471Z,0
2019-03-19T03:03:25.987Z,0
2019-03-19T03:04:25.921Z,0
2019-03-19T03:05:25.948Z,0
2019-03-19T03:06:25.689Z,0
2019-03-19T03:07:25.414Z,0
2019-03-19T03:08:25.646Z,0
2019-03-19T03:09:25.892Z,0
2019-03-19T03:10:26.716Z,0
2019-03-19T03:11:25.884Z,0
2019-03-19T03:12:25.634Z,0
2019-03-19T03:13:25.623Z,0
2019-03-19T03:14:25.895Z,0
2019-03-19T03:15:25.600Z,0
2019-03-19T03:16:25.825Z,0
2019-03-19T03:17:25.329Z,0
2019-03-19T03:18:25.588Z,0
2019-03-19T03:19:25.779Z,0
2019-03-19T03:20:25.913Z,0
2019-03-19T03:21:25.552Z,0
2019-03-19T03:22:25.297Z,0
2019-03-19T03:23:25.531Z,0
2019-03-19T03:24:25.008Z,0
2019-03-19T03:25:25.525Z,0
2019-03-19T03:26:25.484Z,0
2019-03-19T03:27:25.473Z,0
2019-03-19T03:28:25.730Z,0
2019-03-19T03:29:25.726Z,0
2019-03-19T03:30:26.031Z,0
2019-03-19T03:31:25.519Z,0
2019-03-19T03:32:25.228Z,0
2019-03-19T03:33:25.709Z,0
2019-03-19T03:34:25.679Z,0
2019-03-19T03:35:25.733Z,0
2019-03-19T03:36:25.460Z,0
2019-03-19T03:37:25.621Z,0
2019-03-19T03:38:25.625Z,0
2019-03-19T03:39:25.371Z,0
2019-03-19T03:40:25.092Z,0
2019-03-19T03:41:25.341Z,0
2019-03-19T03:42:25.586Z,0
2019-03-19T03:43:25.594Z,0
2019-03-19T03:44:25.321Z,0
2019-03-19T03:45:25.592Z,0
2019-03-19T03:46:25.293Z,0
2019-03-19T03:47:25.290Z,0
2019-03-19T03:48:25.530Z,0
2019-03-19T03:49:25.513Z,0
2019-03-19T03:50:25.085Z,0
2019-03-19T03:51:25.520Z,0
2019-03-19T03:52:25.507Z,0
2019-03-19T03:53:25.270Z,0
2019-03-19T03:54:25.504Z,0
2019-03-19T03:55:25.293Z,0
2019-03-19T03:56:25.190Z,0
2019-03-19T03:57:25.263Z,0
2019-03-19T03:58:24.662Z,0
2019-03-19T03:59:25.175Z,0
2019-03-19T04:00:25.212Z,0
2019-03-19T04:01:25.395Z,0
2019-03-19T04:02:25.438Z,0
2019-03-19T04:03:25.130Z,0
2019-03-19T04:04:25.355Z,0
2019-03-19T04:05:25.093Z,0
2019-03-19T04:06:25.090Z,0
2019-03-19T04:07:24.817Z,0
2019-03-19T04:08:25.340Z,0
2019-03-19T04:09:25.294Z,0
2019-03-19T04:10:25.331Z,0
2019-03-19T04:11:25.337Z,0
2019-03-19T04:12:25.042Z,0
2019-03-19T04:13:24.893Z,0
2019-03-19T04:14:25.240Z,0
2019-03-19T04:15:25.171Z,0
2019-03-19T04:16:25.040Z,0
2019-03-19T04:17:25.235Z,0
2019-03-19T04:18:24.976Z,0
2019-03-19T04:19:25.219Z,0
2019-03-19T04:20:25.166Z,0
2019-03-19T04:21:25.211Z,0
2019-03-19T04:22:24.670Z,0
2019-03-19T04:23:24.931Z,0
2019-03-19T04:24:24.936Z,0
2019-03-19T04:25:24.893Z,0
2019-03-19T04:26:24.641Z,0
2019-03-19T04:27:24.864Z,0
2019-03-19T04:28:24.890Z,0
2019-03-19T04:29:25.111Z,0
2019-03-19T04:30:24.644Z,0
2019-03-19T04:31:25.096Z,0
2019-03-19T04:32:24.606Z,0
2019-03-19T04:33:24.584Z,0
2019-03-19T04:34:24.573Z,0
2019-03-19T04:35:24.993Z,0
2019-03-19T04:36:25.048Z,0
2019-03-19T04:37:24.803Z,0
2019-03-19T04:38:25.010Z,0
2019-03-19T04:39:25.001Z,0
2019-03-19T04:40:25.049Z,0
2019-03-19T04:41:25.000Z,0
2019-03-19T04:42:24.482Z,0
2019-03-19T04:43:24.520Z,0
2019-03-19T04:44:25.005Z,0
2019-03-19T04:45:24.462Z,0
2019-03-19T04:46:24.690Z,0
2019-03-19T04:47:24.676Z,0
2019-03-19T04:48:24.532Z,0
2019-03-19T04:49:24.490Z,0
2019-03-19T04:50:24.644Z,0
2019-03-19T04:51:25.072Z,0
2019-03-19T04:52:24.628Z,0
2019-03-19T04:53:26.734Z,0
2019-03-19T04:54:24.611Z,0
2019-03-19T04:55:24.662Z,0
2019-03-19T04:56:24.624Z,0
2019-03-19T04:57:33.837Z,0
2019-03-19T04:58:24.581Z,0
2019-03-19T04:59:24.821Z,0
2019-03-19T05:00:24.375Z,0
2019-03-19T05:01:24.791Z,0
2019-03-19T05:02:24.777Z,0
2019-03-19T05:03:24.273Z,4
2019-03-19T05:04:24.281Z,4
2019-03-19T05:05:24.652Z,0
2019-03-19T05:06:24.329Z,4
2019-03-19T05:07:24.567Z,4
2019-03-19T05:08:24.480Z,4
2019-03-19T05:09:24.478Z,8
2019-03-19T05:10:24.504Z,8
2019-03-19T05:11:24.474Z,8
2019-03-19T05:12:24.445Z,8
2019-03-19T05:13:24.197Z,12
2019-03-19T05:14:24.662Z,12
2019-03-19T05:15:24.258Z,16
2019-03-19T05:16:24.408Z,16
2019-03-19T05:17:24.390Z,16
2019-03-19T05:18:24.384Z,20
2019-03-19T05:19:24.375Z,28
2019-03-19T05:20:24.409Z,32
2019-03-19T05:21:25.712Z,36
2019-03-19T05:22:24.596Z,44
2019-03-19T05:23:24.102Z,48
2019-03-19T05:24:24.562Z,56
2019-03-19T05:25:24.634Z,60
2019-03-19T05:26:24.300Z,68
2019-03-19T05:27:24.063Z,80
2019-03-19T05:28:24.543Z,84
2019-03-19T05:29:24.298Z,100
2019-03-19T05:30:24.321Z,108
2019-03-19T05:31:24.017Z,120
2019-03-19T05:32:23.757Z,140
2019-03-19T05:33:26.734Z,160
2019-03-19T05:34:24.240Z,176
2019-03-19T05:35:24.572Z,200
2019-03-19T05:36:23.987Z,220
2019-03-19T05:37:23.979Z,240
2019-03-19T05:38:24.453Z,260
2019-03-19T05:39:24.186Z,284
2019-03-19T05:40:23.782Z,308
2019-03-19T05:41:24.175Z,332
2019-03-19T05:42:24.167Z,352
2019-03-19T05:43:23.921Z,380
2019-03-19T05:44:24.390Z,400
2019-03-19T05:45:24.291Z,428
2019-03-19T05:46:23.850Z,456
2019-03-19T05:47:24.111Z,488
2019-03-19T05:48:23.866Z,528
2019-03-19T05:49:23.870Z,568
2019-03-19T05:50:23.930Z,604
2019-03-19T05:51:24.085Z,656
2019-03-19T05:52:23.826Z,712
2019-03-19T05:53:23.822Z,760
2019-03-19T05:54:24.085Z,808
2019-03-19T05:55:24.106Z,852
2019-03-19T05:56:24.030Z,892
2019-03-19T05:57:24.024Z,936
2019-03-19T05:58:24.029Z,988
2019-03-19T05:59:24.292Z,1044
2019-03-19T06:00:24.033Z,1104
2019-03-19T06:01:23.782Z,1164
2019-03-19T06:02:24.227Z,1216
2019-03-19T06:03:23.709Z,1288
2019-03-19T06:04:24.191Z,1316
2019-03-19T06:05:25.788Z,1356
2019-03-19T06:06:24.176Z,1400
2019-03-19T06:07:23.418Z,1452
2019-03-19T06:08:23.919Z,1504
2019-03-19T06:09:24.156Z,1568
2019-03-19T06:10:25.867Z,1632
2019-03-19T06:11:23.636Z,1704
2019-03-19T06:12:23.381Z,1796
2019-03-19T06:13:23.872Z,1936
2019-03-19T06:14:24.095Z,2036
2019-03-19T06:15:23.655Z,2140
2019-03-19T06:16:23.892Z,2204
2019-03-19T06:17:23.826Z,2260
2019-03-19T06:18:34.249Z,2292
2019-03-19T06:19:23.806Z,2304
2019-03-19T06:20:23.842Z,2296
2019-03-19T06:21:24.040Z,2284
2019-03-19T06:22:24.107Z,2204
2019-03-19T06:23:24.031Z,2228
2019-03-19T06:24:23.770Z,2308
2019-03-19T06:25:24.092Z,2328
2019-03-19T06:26:23.978Z,2268
2019-03-19T06:27:24.018Z,2240
2019-03-19T06:28:23.708Z,2240
2019-03-19T06:29:23.715Z,2252
2019-03-19T06:30:23.794Z,2276
2019-03-19T06:31:23.934Z,2296
2019-03-19T06:32:23.679Z,2308
2019-03-19T06:33:23.686Z,2336
2019-03-19T06:34:23.916Z,2352
2019-03-19T06:35:23.733Z,2348
2019-03-19T06:36:23.942Z,2364
2019-03-19T06:37:23.420Z,2376
2019-03-19T06:38:23.633Z,2392
2019-03-19T06:39:23.625Z,2408
2019-03-19T06:40:23.915Z,2428
2019-03-19T06:41:23.852Z,2448
2019-03-19T06:42:23.839Z,2480
2019-03-19T06:43:23.841Z,2556
2019-03-19T06:44:23.567Z,2576
2019-03-19T06:45:25.626Z,2572
2019-03-19T06:46:23.537Z,2552
2019-03-19T06:47:23.528Z,2504
2019-03-19T06:48:23.531Z,2504
2019-03-19T06:49:23.504Z,2532
2019-03-19T06:50:23.846Z,2600
2019-03-19T06:51:23.513Z,2676
2019-03-19T06:52:24.218Z,2752
2019-03-19T06:53:23.733Z,2812
2019-03-19T06:54:23.775Z,2892
2019-03-19T06:55:23.287Z,3012
2019-03-19T06:56:23.730Z,3156
2019-03-19T06:57:23.232Z,3288
2019-03-19T06:58:23.207Z,3404
2019-03-19T06:59:23.215Z,3500
2019-03-19T07:00:23.439Z,3580
2019-03-19T07:01:24.190Z,3660
2019-03-19T07:02:23.166Z,3756
2019-03-19T07:03:23.415Z,4464
2019-03-19T07:04:23.388Z,4024
2019-03-19T07:05:23.425Z,3836
2019-03-19T07:06:24.858Z,3856
2019-03-19T07:07:23.130Z,3920
2019-03-19T07:08:23.413Z,4016
2019-03-19T07:09:23.138Z,4144
2019-03-19T07:10:23.366Z,4432
2019-03-19T07:11:23.332Z,5948
2019-03-19T07:12:23.391Z,6664
2019-03-19T07:13:23.074Z,6700
2019-03-19T07:14:23.425Z,7452
2019-03-19T07:15:23.204Z,7184
2019-03-19T07:16:23.555Z,4884
2019-03-19T07:17:23.302Z,5152
2019-03-19T07:18:23.522Z,7160
2019-03-19T07:19:23.521Z,6268
2019-03-19T07:20:23.556Z,4792
2019-03-19T07:21:23.253Z,4144
2019-03-19T07:22:23.498Z,3980
2019-03-19T07:23:23.494Z,3932
2019-03-19T07:24:22.993Z,3912
2019-03-19T07:25:23.499Z,3940
2019-03-19T07:26:23.252Z,3984
2019-03-19T07:27:23.482Z,4072
2019-03-19T07:28:29.333Z,4100
2019-03-19T07:29:23.244Z,5416
2019-03-19T07:30:23.240Z,4392
2019-03-19T07:31:33.263Z,6240
2019-03-19T07:32:23.457Z,7956
2019-03-19T07:33:23.453Z,7956
2019-03-19T07:34:23.190Z,8308
2019-03-19T07:35:23.542Z,8512
2019-03-19T07:36:23.221Z,8460
2019-03-19T07:37:23.412Z,8536
2019-03-19T07:38:23.186Z,8412
2019-03-19T07:39:23.407Z,8484
2019-03-19T07:40:23.244Z,8660
2019-03-19T07:41:24.889Z,8664
2019-03-19T07:42:22.905Z,8696
2019-03-19T07:43:23.164Z,8736
2019-03-19T07:44:23.413Z,8720
2019-03-19T07:45:23.224Z,8720
2019-03-19T07:46:23.406Z,8680
2019-03-19T07:47:23.160Z,8704
2019-03-19T07:48:23.154Z,8660
2019-03-19T07:49:22.885Z,8728
2019-03-19T07:50:22.944Z,8816
2019-03-19T07:51:23.158Z,8892
2019-03-19T07:52:23.158Z,8928
2019-03-19T07:53:24.249Z,8928
2019-03-19T07:54:22.887Z,8924
2019-03-19T07:55:23.546Z,8872
2019-03-19T07:56:23.166Z,8924
2019-03-19T07:57:23.212Z,8964
2019-03-19T07:58:44.672Z,8976
2019-03-19T07:59:23.379Z,8984
2019-03-19T08:00:23.489Z,8944
2019-03-19T08:01:24.646Z,8928
2019-03-19T08:02:23.164Z,8936
2019-03-19T08:03:23.836Z,8932
2019-03-19T08:04:23.398Z,8908
2019-03-19T08:05:32.440Z,8868
2019-03-19T08:06:23.146Z,8892
2019-03-19T08:07:23.395Z,8852
2019-03-19T08:08:23.137Z,8856
2019-03-19T08:09:23.394Z,8876
2019-03-19T08:10:23.216Z,8800
2019-03-19T08:11:24.057Z,8760
2019-03-19T08:12:23.158Z,8724
2019-03-19T08:13:22.657Z,8688
2019-03-19T08:14:22.960Z,8664
2019-03-19T08:15:23.464Z,8644
2019-03-19T08:16:34.181Z,8584
2019-03-19T08:17:23.516Z,8504
2019-03-19T08:18:23.156Z,8344
2019-03-19T08:19:23.165Z,8268
2019-03-19T08:20:23.225Z,8160
2019-03-19T08:21:24.953Z,8092
2019-03-19T08:22:23.252Z,8012
2019-03-19T08:23:23.409Z,7956
2019-03-19T08:24:23.178Z,7944
2019-03-19T08:25:23.036Z,7944
2019-03-19T08:26:23.186Z,7860
2019-03-19T08:27:23.186Z,7800
2019-03-19T08:28:23.425Z,7848
2019-03-19T08:29:23.442Z,7916
2019-03-19T08:30:24.677Z,7984
2019-03-19T08:31:23.224Z,8004
2019-03-19T08:32:23.176Z,7936
2019-03-19T08:33:23.191Z,7824
2019-03-19T08:34:23.166Z,7752
2019-03-19T08:35:22.932Z,8364
2019-03-19T08:36:23.184Z,8300
2019-03-19T08:37:22.698Z,8360
2019-03-19T08:38:22.917Z,8460
2019-03-19T08:39:23.048Z,8564
2019-03-19T08:40:23.056Z,8628
2019-03-19T08:41:23.417Z,8636
2019-03-19T08:42:23.176Z,8492
2019-03-19T08:43:25.219Z,8424
2019-03-19T08:44:31.956Z,8500
2019-03-19T08:45:23.503Z,8580
2019-03-19T08:46:22.905Z,8564
2019-03-19T08:47:23.389Z,8588
2019-03-19T08:48:23.142Z,8668
2019-03-19T08:49:24.793Z,8664
2019-03-19T08:50:23.150Z,8688
2019-03-19T08:51:22.905Z,8788
2019-03-19T08:52:23.384Z,8772
2019-03-19T08:53:22.869Z,8868
2019-03-19T08:54:24.737Z,8888
2019-03-19T08:55:23.363Z,8968
2019-03-19T08:56:23.108Z,9156
2019-03-19T08:57:23.122Z,9360
2019-03-19T08:58:23.111Z,9600
2019-03-19T08:59:23.091Z,9848
2019-03-19T09:00:23.416Z,10108
2019-03-19T09:01:22.846Z,10328
2019-03-19T09:02:23.330Z,10576
2019-03-19T09:03:23.368Z,10640
2019-03-19T09:04:23.067Z,10768
2019-03-19T09:05:22.883Z,10900
2019-03-19T09:06:23.076Z,10960
2019-03-19T09:07:24.950Z,11016
2019-03-19T09:08:22.822Z,11048
2019-03-19T09:09:22.817Z,11216
2019-03-19T09:10:22.910Z,11480
2019-03-19T09:11:23.298Z,11548
2019-03-19T09:12:23.290Z,11444
2019-03-19T09:13:23.029Z,11428
2019-03-19T09:14:23.068Z,11400
2019-03-19T09:15:22.904Z,11384
2019-03-19T09:16:23.265Z,11352
2019-03-19T09:17:22.519Z,11264
2019-03-19T09:18:23.138Z,11192
2019-03-19T09:19:23.027Z,11040
2019-03-19T09:20:22.807Z,10916
2019-03-19T09:21:22.774Z,10912
2019-03-19T09:22:29.483Z,11008
2019-03-19T09:23:23.004Z,11192
2019-03-19T09:24:24.128Z,11248
2019-03-19T09:25:23.040Z,11160
2019-03-19T09:26:22.807Z,10960
2019-03-19T09:27:22.975Z,10748
2019-03-19T09:28:22.725Z,10752
2019-03-19T09:29:25.429Z,10728
2019-03-19T09:30:22.812Z,10672
2019-03-19T09:31:23.238Z,10768
2019-03-19T09:32:22.984Z,10812
2019-03-19T09:33:23.210Z,10740
2019-03-19T09:34:23.218Z,10772
2019-03-19T09:35:22.816Z,10688
2019-03-19T09:36:23.205Z,10476
2019-03-19T09:37:23.204Z,10660
2019-03-19T09:38:22.711Z,10604
2019-03-19T09:39:22.757Z,10736
2019-03-19T09:40:22.830Z,11000
2019-03-19T09:41:23.176Z,11108
2019-03-19T09:42:22.414Z,11196
2019-03-19T09:43:22.924Z,11076
2019-03-19T09:44:22.661Z,10852
2019-03-19T09:45:23.054Z,8644
2019-03-19T09:46:23.430Z,7424
2019-03-19T09:47:22.915Z,7184
2019-03-19T09:48:22.659Z,7140
2019-03-19T09:49:23.584Z,7144
2019-03-19T09:50:22.677Z,7428
2019-03-19T09:51:22.648Z,7476
2019-03-19T09:52:22.626Z,7580
2019-03-19T09:53:23.414Z,7496
2019-03-19T09:54:23.109Z,7388
2019-03-19T09:55:22.945Z,8648
2019-03-19T09:56:22.643Z,6648
2019-03-19T09:57:23.111Z,6268
2019-03-19T09:58:22.371Z,6168
2019-03-19T09:59:31.909Z,6136
2019-03-19T10:00:23.143Z,6144
2019-03-19T10:01:22.594Z,6164
2019-03-19T10:02:23.839Z,6248
2019-03-19T10:03:23.085Z,6336
2019-03-19T10:04:22.339Z,6420
2019-03-19T10:05:22.867Z,6516
2019-03-19T10:06:22.592Z,6648
2019-03-19T10:07:23.058Z,6904
2019-03-19T10:08:23.066Z,7652
2019-03-19T10:09:22.859Z,7424
2019-03-19T10:10:22.958Z,6956
2019-03-19T10:11:23.089Z,6972
2019-03-19T10:12:22.551Z,6880
2019-03-19T10:13:23.054Z,6940
2019-03-19T10:14:23.034Z,6964
2019-03-19T10:15:23.149Z,7012
2019-03-19T10:16:22.796Z,7124
2019-03-19T10:17:22.559Z,7240
2019-03-19T10:18:22.804Z,9280
2019-03-19T10:19:22.763Z,8520
2019-03-19T10:20:25.123Z,7732
2019-03-19T10:21:23.009Z,7724
2019-03-19T10:22:22.768Z,7712
2019-03-19T10:23:22.760Z,7864
2019-03-19T10:24:22.783Z,7864
2019-03-19T10:25:23.110Z,8080
2019-03-19T10:26:23.041Z,8236
2019-03-19T10:27:24.294Z,8400
2019-03-19T10:28:22.727Z,8512
2019-03-19T10:29:23.023Z,8684
2019-03-19T10:30:22.799Z,8716
2019-03-19T10:31:22.961Z,8528
2019-03-19T10:32:22.712Z,8392
2019-03-19T10:33:23.372Z,8496
2019-03-19T10:34:22.736Z,9252
2019-03-19T10:35:22.737Z,11088
2019-03-19T10:36:22.436Z,8292
2019-03-19T10:37:22.700Z,10712
2019-03-19T10:38:22.698Z,10620
2019-03-19T10:39:22.935Z,9480
2019-03-19T10:40:22.571Z,10372
2019-03-19T10:41:22.450Z,10376
2019-03-19T10:42:22.656Z,10324
2019-03-19T10:43:22.431Z,10472
2019-03-19T10:44:22.664Z,10532
2019-03-19T10:45:22.703Z,10416
2019-03-19T10:46:22.394Z,10224
2019-03-19T10:47:22.661Z,9988
2019-03-19T10:48:22.645Z,9916
2019-03-19T10:49:22.404Z,9188
2019-03-19T10:50:22.727Z,7304
2019-03-19T10:51:22.635Z,7324
2019-03-19T10:52:22.877Z,7284
2019-03-19T10:53:22.636Z,7208
2019-03-19T10:54:22.622Z,7132
2019-03-19T10:55:22.722Z,7056
2019-03-19T10:56:22.861Z,6932
2019-03-19T10:57:22.624Z,6696
2019-03-19T10:58:22.856Z,6424
2019-03-19T10:59:22.862Z,6132
2019-03-19T11:00:22.902Z,5960
2019-03-19T11:01:22.348Z,5932
2019-03-19T11:02:22.590Z,5908
2019-03-19T11:03:22.349Z,5876
2019-03-19T11:04:22.344Z,5856
2019-03-19T11:05:22.619Z,5896
2019-03-19T11:06:22.605Z,6032
2019-03-19T11:07:22.576Z,6232
2019-03-19T11:08:22.821Z,6432
2019-03-19T11:09:22.610Z,6596
2019-03-19T11:10:22.661Z,6788
2019-03-19T11:11:22.563Z,7004
2019-03-19T11:12:22.548Z,7948
2019-03-19T11:13:22.314Z,9556
2019-03-19T11:14:22.542Z,9532
2019-03-19T11:15:22.823Z,9432
2019-03-19T11:16:22.539Z,9324
2019-03-19T11:17:22.564Z,9220
2019-03-19T11:18:22.784Z,9120
2019-03-19T11:19:22.506Z,9028
2019-03-19T11:20:22.365Z,8800
2019-03-19T11:21:22.937Z,8728
2019-03-19T11:22:22.504Z,8824
2019-03-19T11:23:22.005Z,8996
2019-03-19T11:24:22.751Z,9068
2019-03-19T11:25:22.589Z,9144
2019-03-19T11:26:22.238Z,9152
2019-03-19T11:27:22.252Z,8948
2019-03-19T11:28:22.733Z,9032
2019-03-19T11:29:22.477Z,8048
2019-03-19T11:30:22.503Z,6924
2019-03-19T11:31:22.701Z,7112
2019-03-19T11:32:22.699Z,9276
2019-03-19T11:33:22.460Z,8636
2019-03-19T11:34:22.468Z,7832
2019-03-19T11:35:22.555Z,7352
2019-03-19T11:36:22.463Z,8488
2019-03-19T11:37:22.513Z,9320
2019-03-19T11:38:22.749Z,9080
2019-03-19T11:39:21.941Z,8832
2019-03-19T11:40:25.370Z,8704
2019-03-19T11:41:22.688Z,8584
2019-03-19T11:42:22.412Z,8444
2019-03-19T11:43:22.163Z,8304
2019-03-19T11:44:22.412Z,8196
2019-03-19T11:45:22.519Z,8076
2019-03-19T11:46:22.163Z,6264
2019-03-19T11:47:22.404Z,6804
2019-03-19T11:48:22.415Z,6196
2019-03-19T11:49:22.151Z,7352
2019-03-19T11:50:22.688Z,8152
2019-03-19T11:51:22.633Z,8212
2019-03-19T11:52:21.894Z,8324
2019-03-19T11:53:22.122Z,8392
2019-03-19T11:54:22.118Z,7948
2019-03-19T11:55:23.277Z,7184
2019-03-19T11:56:22.107Z,8328
2019-03-19T11:57:22.615Z,8408
2019-03-19T11:58:22.602Z,8460
2019-03-19T11:59:22.383Z,8740
2019-03-19T12:00:22.402Z,8784
2019-03-19T12:01:21.874Z,8796
2019-03-19T12:02:33.034Z,8764
2019-03-19T12:03:23.573Z,8764
2019-03-19T12:04:22.364Z,8864
2019-03-19T12:05:22.583Z,8984
2019-03-19T12:06:22.577Z,9036
2019-03-19T12:07:22.601Z,8976
2019-03-19T12:08:21.866Z,8972
2019-03-19T12:09:22.311Z,9136
2019-03-19T12:10:22.759Z,9204
2019-03-19T12:11:22.322Z,9000
2019-03-19T12:12:22.588Z,8896
2019-03-19T12:13:22.316Z,8848
2019-03-19T12:14:22.545Z,8632
2019-03-19T12:15:22.614Z,8420
2019-03-19T12:16:22.283Z,8324
2019-03-19T12:17:22.035Z,8316
2019-03-19T12:18:22.292Z,8300
2019-03-19T12:19:22.282Z,8144
2019-03-19T12:20:23.361Z,7944
2019-03-19T12:21:22.533Z,7816
2019-03-19T12:22:22.519Z,7732
2019-03-19T12:23:22.520Z,7664
2019-03-19T12:24:22.262Z,7636
2019-03-19T12:25:23.656Z,7628
2019-03-19T12:26:22.284Z,7632
2019-03-19T12:27:22.379Z,7688
2019-03-19T12:28:22.253Z,7748
2019-03-19T12:29:21.991Z,7784
2019-03-19T12:30:31.264Z,7812
2019-03-19T12:31:22.251Z,7876
2019-03-19T12:32:22.004Z,7928
2019-03-19T12:33:22.231Z,7960
2019-03-19T12:34:22.038Z,8040
2019-03-19T12:35:22.307Z,8080
2019-03-19T12:36:21.976Z,8076
2019-03-19T12:37:21.982Z,7972
2019-03-19T12:38:22.255Z,7824
2019-03-19T12:39:21.960Z,7620
2019-03-19T12:40:22.258Z,7456
2019-03-19T12:41:22.511Z,7416
2019-03-19T12:42:22.249Z,6856
2019-03-19T12:43:22.179Z,7536
2019-03-19T12:44:22.448Z,7628
2019-03-19T12:45:22.015Z,7692
2019-03-19T12:46:22.183Z,7700
2019-03-19T12:47:21.941Z,7824
2019-03-19T12:48:22.186Z,7980
2019-03-19T12:49:22.402Z,8140
2019-03-19T12:50:22.435Z,8224
2019-03-19T12:51:22.403Z,8200
2019-03-19T12:52:22.453Z,8112
2019-03-19T12:53:22.141Z,8000
2019-03-19T12:54:22.395Z,7896
2019-03-19T12:55:21.927Z,7764
2019-03-19T12:56:22.687Z,7700
2019-03-19T12:57:22.126Z,7644
2019-03-19T12:58:22.441Z,7492
2019-03-19T12:59:26.767Z,7316
2019-03-19T13:00:32.853Z,7140
2019-03-19T13:01:22.686Z,7044
2019-03-19T13:02:21.862Z,7060
2019-03-19T13:03:22.128Z,7144
2019-03-19T13:04:21.607Z,7252
2019-03-19T13:05:24.827Z,7416
2019-03-19T13:06:22.113Z,7492
2019-03-19T13:07:22.099Z,7508
2019-03-19T13:08:25.067Z,7412
2019-03-19T13:09:22.371Z,7328
2019-03-19T13:10:22.138Z,7280
2019-03-19T13:11:21.833Z,7284
2019-03-19T13:12:22.339Z,7172
2019-03-19T13:13:22.072Z,6992
2019-03-19T13:14:21.842Z,6868
2019-03-19T13:15:24.150Z,6824
2019-03-19T13:16:22.055Z,6892
2019-03-19T13:17:21.803Z,7008
2019-03-19T13:18:21.796Z,7132
2019-03-19T13:19:21.794Z,7180
2019-03-19T13:20:21.874Z,7112
2019-03-19T13:21:22.305Z,7028
2019-03-19T13:22:22.048Z,6952
2019-03-19T13:23:22.064Z,6844
2019-03-19T13:24:24.233Z,6700
2019-03-19T13:25:21.857Z,6552
2019-03-19T13:26:22.039Z,6252
2019-03-19T13:27:22.026Z,5888
2019-03-19T13:28:22.273Z,5864
2019-03-19T13:29:22.025Z,6108
2019-03-19T13:30:22.114Z,6204
2019-03-19T13:31:22.016Z,6180
2019-03-19T13:32:22.005Z,5196
2019-03-19T13:33:22.471Z,5032
2019-03-19T13:34:21.791Z,4996
2019-03-19T13:35:22.335Z,5024
2019-03-19T13:36:21.993Z,5240
2019-03-19T13:37:22.067Z,5168
2019-03-19T13:38:21.985Z,5152
2019-03-19T13:39:22.226Z,5124
2019-03-19T13:40:22.050Z,5056
2019-03-19T13:41:22.211Z,4956
2019-03-19T13:42:22.205Z,4996
2019-03-19T13:43:21.942Z,5088
2019-03-19T13:44:21.938Z,5216
2019-03-19T13:45:22.201Z,5320
2019-03-19T13:46:21.924Z,5840
2019-03-19T13:47:21.459Z,4996
2019-03-19T13:48:21.667Z,4884
2019-03-19T13:49:21.933Z,4784
2019-03-19T13:50:21.742Z,4664